Terminal Aerodrome Forecast
Issued by NWS

Home | Current Version | Previous Version | Text Only | Print | Product List | Glossary On
Versions: 1 2 3 4 5 6 7 8 9 10 11 12 13 14 15 16 17
000
FTUS43 KAPX 301700
TAFMBL
TAF
KMBL 301740Z 3018/3118 30010G16KT P6SM VCSH SCT022 BKN035
      TEMPO 3020/3024 3SM SHRA BKN022
     FM310300 28006KT 3SM BR OVC005
     FM310600 27005KT 1SM BR OVC003
     FM311400 29006KT P6SM BKN015
     FM311700 29006KT P6SM SCT022
      AMD LTD TO CLD VIS AND WIND=

USA.gov is the U.S. government's official web portal to all federal, state and local government web resources and services.